createdAt,value
2018-12-15T00:00:35.607Z,0.00
2018-12-15T00:01:35.567Z,0.00
2018-12-15T00:02:35.551Z,0.00
2018-12-15T00:03:35.545Z,0.00
2018-12-15T00:04:35.532Z,0.00
2018-12-15T00:05:35.533Z,0.00
2018-12-15T00:06:35.547Z,0.00
2018-12-15T00:07:35.499Z,0.00
2018-12-15T00:08:35.485Z,0.00
2018-12-15T00:09:35.473Z,0.00
2018-12-15T00:10:35.498Z,0.00
2018-12-15T00:11:35.529Z,0.00
2018-12-15T00:12:35.443Z,0.00
2018-12-15T00:13:35.438Z,0.00
2018-12-15T00:14:35.420Z,0.00
2018-12-15T00:15:35.410Z,0.00
2018-12-15T00:16:35.424Z,0.00
2018-12-15T00:17:35.387Z,0.00
2018-12-15T00:18:35.373Z,0.00
2018-12-15T00:19:35.464Z,0.00
2018-12-15T00:20:35.353Z,0.00
2018-12-15T00:21:35.385Z,0.00
2018-12-15T00:22:35.335Z,0.00
2018-12-15T00:23:35.317Z,0.00
2018-12-15T00:24:35.312Z,0.00
2018-12-15T00:25:35.312Z,0.00
2018-12-15T00:26:35.316Z,0.00
2018-12-15T00:27:35.271Z,0.00
2018-12-15T00:28:35.264Z,0.00
2018-12-15T00:29:35.248Z,0.00
2018-12-15T00:30:35.243Z,0.00
2018-12-15T00:31:35.259Z,0.00
2018-12-15T00:32:35.223Z,0.00
2018-12-15T00:33:35.204Z,0.00
2018-12-15T00:34:35.195Z,0.00
2018-12-15T00:35:35.189Z,0.00
2018-12-15T00:36:35.172Z,0.00
2018-12-15T00:37:35.185Z,0.00
2018-12-15T00:38:35.151Z,0.00
2018-12-15T00:39:35.240Z,0.00
2018-12-15T00:40:35.129Z,0.00
2018-12-15T00:41:35.121Z,0.00
2018-12-15T00:42:35.109Z,0.00
2018-12-15T00:43:35.122Z,0.00
2018-12-15T00:44:35.084Z,0.00
2018-12-15T00:45:35.092Z,0.00
2018-12-15T00:46:35.067Z,0.00
2018-12-15T00:47:35.076Z,0.00
2018-12-15T00:48:35.036Z,0.00
2018-12-15T00:49:35.027Z,0.00
2018-12-15T00:50:35.015Z,0.00
2018-12-15T00:51:35.044Z,0.00
2018-12-15T00:52:34.993Z,0.00
2018-12-15T00:53:34.984Z,0.00
2018-12-15T00:54:34.974Z,0.00
2018-12-15T00:55:34.968Z,0.00
2018-12-15T00:56:34.952Z,0.00
2018-12-15T00:57:34.968Z,0.00
2018-12-15T00:58:34.926Z,0.00
2018-12-15T00:59:34.919Z,0.00
2018-12-15T01:00:34.915Z,0.00
2018-12-15T01:01:34.902Z,0.00
2018-12-15T01:02:35.082Z,0.00
2018-12-15T01:03:34.884Z,0.00
2018-12-15T01:04:34.869Z,0.00
2018-12-15T01:05:34.855Z,0.00
2018-12-15T01:06:34.841Z,0.00
2018-12-15T01:07:35.301Z,0.00
2018-12-15T01:08:35.098Z,0.00
2018-12-15T01:09:34.807Z,0.00
2018-12-15T01:10:34.804Z,0.00
2018-12-15T01:11:34.789Z,0.00
2018-12-15T01:12:34.773Z,0.00
2018-12-15T01:13:34.768Z,0.00
2018-12-15T01:14:34.777Z,0.00
2018-12-15T01:15:34.746Z,0.00
2018-12-15T01:16:34.738Z,0.00
2018-12-15T01:17:34.725Z,0.00
2018-12-15T01:18:34.706Z,0.00
2018-12-15T01:19:34.694Z,0.00
2018-12-15T01:20:34.711Z,0.00
2018-12-15T01:21:34.672Z,0.00
2018-12-15T01:22:34.676Z,0.00
2018-12-15T01:23:34.655Z,0.00
2018-12-15T01:24:34.643Z,0.00
2018-12-15T01:25:34.624Z,0.00
2018-12-15T01:26:34.647Z,0.00
2018-12-15T01:27:34.607Z,0.00
2018-12-15T01:28:34.600Z,0.00
2018-12-15T01:29:34.612Z,0.00
2018-12-15T01:30:34.573Z,0.00
2018-12-15T01:31:34.562Z,0.00
2018-12-15T01:32:34.551Z,0.00
2018-12-15T01:33:34.546Z,0.00
2018-12-15T01:34:34.553Z,0.00
2018-12-15T01:35:34.538Z,0.00
2018-12-15T01:36:34.506Z,0.00
2018-12-15T01:37:34.499Z,0.00
2018-12-15T01:38:34.482Z,0.00
2018-12-15T01:39:34.501Z,0.00
2018-12-15T01:40:34.461Z,0.00
2018-12-15T01:41:34.465Z,0.00
2018-12-15T01:42:34.441Z,0.00
2018-12-15T01:43:34.426Z,0.00
2018-12-15T01:44:34.443Z,0.00
2018-12-15T01:45:34.405Z,0.00
2018-12-15T01:46:34.395Z,0.00
2018-12-15T01:47:34.391Z,0.00
2018-12-15T01:48:34.374Z,0.00
2018-12-15T01:49:34.581Z,0.00
2018-12-15T01:50:34.349Z,0.00
2018-12-15T01:51:34.341Z,0.00
2018-12-15T01:52:34.334Z,0.00
2018-12-15T01:53:34.326Z,0.00
2018-12-15T01:54:34.339Z,0.00
2018-12-15T01:55:34.292Z,0.00
2018-12-15T01:56:34.282Z,0.00
2018-12-15T01:57:34.271Z,0.00
2018-12-15T01:58:34.262Z,0.00
2018-12-15T01:59:34.254Z,0.00
2018-12-15T02:00:34.259Z,0.00
2018-12-15T02:01:34.228Z,0.00
2018-12-15T02:02:34.220Z,0.00
2018-12-15T02:03:34.201Z,0.00
2018-12-15T02:04:34.197Z,0.00
2018-12-15T02:05:34.207Z,0.00
2018-12-15T02:06:34.184Z,0.00
2018-12-15T02:07:34.164Z,0.00
2018-12-15T02:08:34.150Z,0.00
2018-12-15T02:09:34.141Z,0.00
2018-12-15T02:10:34.128Z,0.00
2018-12-15T02:11:34.214Z,0.00
2018-12-15T02:12:34.111Z,0.00
2018-12-15T02:13:34.094Z,0.00
2018-12-15T02:14:34.113Z,0.00
2018-12-15T02:15:34.098Z,0.00
2018-12-15T02:16:34.068Z,0.00
2018-12-15T02:17:34.127Z,0.00
2018-12-15T02:18:34.055Z,0.00
2018-12-15T02:19:34.034Z,0.00
2018-12-15T02:20:34.072Z,0.00
2018-12-15T02:21:34.010Z,0.00
2018-12-15T02:22:33.994Z,0.00
2018-12-15T02:23:33.984Z,0.00
2018-12-15T02:24:33.979Z,0.00
2018-12-15T02:25:33.965Z,0.00
2018-12-15T02:26:33.973Z,0.00
2018-12-15T02:27:33.938Z,0.00
2018-12-15T02:28:33.927Z,0.00
2018-12-15T02:29:33.920Z,0.00
2018-12-15T02:30:33.913Z,0.00
2018-12-15T02:31:33.921Z,0.00
2018-12-15T02:32:33.887Z,0.00
2018-12-15T02:33:33.878Z,0.00
2018-12-15T02:34:33.862Z,0.00
2018-12-15T02:35:33.858Z,0.00
2018-12-15T02:36:33.872Z,0.00
2018-12-15T02:37:33.828Z,0.00
2018-12-15T02:38:33.817Z,0.00
2018-12-15T02:39:33.812Z,0.00
2018-12-15T02:40:33.799Z,0.00
2018-12-15T02:41:33.815Z,0.00
2018-12-15T02:42:33.785Z,0.00
2018-12-15T02:43:33.761Z,0.00
2018-12-15T02:44:33.755Z,0.00
2018-12-15T02:45:33.740Z,0.00
2018-12-15T02:46:33.731Z,0.00
2018-12-15T02:47:41.175Z,0.00
2018-12-15T02:48:34.714Z,0.00
2018-12-15T02:49:33.708Z,0.00
2018-12-15T02:50:33.687Z,0.00
2018-12-15T02:51:33.677Z,0.00
2018-12-15T02:52:33.670Z,0.00
2018-12-15T02:53:33.681Z,0.00
2018-12-15T02:54:33.644Z,0.00
2018-12-15T02:55:33.647Z,0.00
2018-12-15T02:56:33.648Z,0.00
2018-12-15T02:57:33.610Z,0.00
2018-12-15T02:58:33.609Z,0.00
2018-12-15T02:59:33.594Z,0.00
2018-12-15T03:00:33.609Z,0.00
2018-12-15T03:01:33.574Z,0.00
2018-12-15T03:02:33.587Z,0.00
2018-12-15T03:03:33.578Z,0.00
2018-12-15T03:04:33.546Z,0.00
2018-12-15T03:05:33.556Z,0.00
2018-12-15T03:06:33.529Z,0.00
2018-12-15T03:07:33.510Z,0.00
2018-12-15T03:08:33.505Z,0.00
2018-12-15T03:09:33.491Z,0.00
2018-12-15T03:10:33.479Z,0.00
2018-12-15T03:11:33.493Z,0.00
2018-12-15T03:12:33.479Z,0.00
2018-12-15T03:13:33.461Z,0.00
2018-12-15T03:14:33.434Z,0.00
2018-12-15T03:15:33.427Z,0.00
2018-12-15T03:16:33.435Z,0.00
2018-12-15T03:17:33.403Z,0.00
2018-12-15T03:18:33.397Z,0.00
2018-12-15T03:19:33.388Z,0.00
2018-12-15T03:20:33.370Z,0.00
2018-12-15T03:21:33.562Z,0.00
2018-12-15T03:22:33.351Z,0.00
2018-12-15T03:23:33.336Z,0.00
2018-12-15T03:24:33.346Z,0.00
2018-12-15T03:25:33.318Z,0.00
2018-12-15T03:26:33.302Z,0.00
2018-12-15T03:27:33.503Z,0.00
2018-12-15T03:28:33.282Z,0.00
2018-12-15T03:29:33.276Z,0.00
2018-12-15T03:31:57.298Z,0.00
2018-12-15T03:32:57.382Z,0.00
2018-12-15T03:33:57.264Z,0.00
2018-12-15T03:34:57.242Z,0.00
2018-12-15T03:35:57.273Z,0.00
2018-12-15T03:36:57.239Z,0.00
2018-12-15T03:37:57.205Z,0.00
2018-12-15T03:38:57.247Z,0.00
2018-12-15T03:39:57.198Z,0.00
2018-12-15T03:40:57.224Z,0.00
2018-12-15T03:41:57.147Z,0.00
2018-12-15T03:42:57.168Z,0.00
2018-12-15T03:43:57.143Z,0.00
2018-12-15T03:44:57.153Z,0.00
2018-12-15T03:45:57.131Z,0.00
2018-12-15T03:46:57.116Z,0.00
2018-12-15T03:47:57.138Z,0.00
2018-12-15T03:48:57.068Z,0.00
2018-12-15T03:49:57.063Z,0.00
2018-12-15T03:50:57.054Z,0.00
2018-12-15T03:51:57.065Z,0.00
2018-12-15T03:52:57.051Z,0.00
2018-12-15T03:53:57.039Z,0.00
2018-12-15T03:54:57.007Z,0.00
2018-12-15T03:55:57.012Z,0.00
2018-12-15T03:56:57.009Z,0.00
2018-12-15T03:57:56.997Z,0.00
2018-12-15T03:58:56.963Z,0.00
2018-12-15T03:59:56.954Z,0.00
2018-12-15T04:00:56.965Z,0.00
2018-12-15T04:01:56.966Z,0.00
2018-12-15T04:02:56.966Z,0.00
2018-12-15T04:03:56.920Z,0.00
2018-12-15T04:04:56.917Z,0.00
2018-12-15T04:05:56.908Z,0.00
2018-12-15T04:06:56.900Z,0.00
2018-12-15T04:07:56.881Z,0.00
2018-12-15T04:08:56.868Z,0.00
2018-12-15T04:09:56.864Z,0.00
2018-12-15T04:10:57.044Z,0.00
2018-12-15T04:11:56.819Z,0.00
2018-12-15T04:12:56.807Z,0.00
2018-12-15T04:13:56.807Z,0.00
2018-12-15T04:14:56.799Z,0.00
2018-12-15T04:15:56.791Z,0.00
2018-12-15T04:16:56.824Z,0.00
2018-12-15T04:18:03.445Z,0.00
2018-12-15T04:18:57.738Z,0.00
2018-12-15T04:19:56.735Z,0.00
2018-12-15T04:20:57.025Z,0.00
2018-12-15T04:21:56.708Z,0.00
2018-12-15T04:22:56.696Z,0.00
2018-12-15T04:23:56.704Z,0.00
2018-12-15T04:24:56.696Z,0.00
2018-12-15T04:25:56.695Z,0.00
2018-12-15T04:26:56.705Z,0.00
2018-12-15T04:27:56.652Z,0.00
2018-12-15T04:28:56.649Z,0.00
2018-12-15T04:29:56.640Z,0.00
2018-12-15T04:30:56.655Z,0.00
2018-12-15T04:31:56.593Z,0.00
2018-12-15T04:32:56.596Z,0.00
2018-12-15T04:33:56.604Z,0.00
2018-12-15T04:34:56.585Z,0.00
2018-12-15T04:35:56.621Z,0.00
2018-12-15T04:36:56.585Z,0.00
2018-12-15T04:37:56.580Z,0.00
2018-12-15T04:38:56.576Z,0.00
2018-12-15T04:39:56.560Z,0.00
2018-12-15T04:40:56.554Z,0.00
2018-12-15T04:41:56.535Z,0.00
2018-12-15T04:42:56.678Z,0.00
2018-12-15T04:43:56.519Z,0.00
2018-12-15T04:44:56.500Z,0.00
2018-12-15T04:45:56.500Z,0.00
2018-12-15T04:46:56.438Z,0.00
2018-12-15T04:47:56.440Z,0.00
2018-12-15T04:48:56.461Z,0.00
2018-12-15T04:49:56.421Z,0.00
2018-12-15T04:50:56.382Z,0.00
2018-12-15T04:51:56.379Z,0.00
2018-12-15T04:52:56.390Z,0.00
2018-12-15T04:53:56.355Z,0.00
2018-12-15T04:54:56.368Z,0.00
2018-12-15T04:55:56.354Z,0.00
2018-12-15T04:56:56.317Z,0.00
2018-12-15T04:57:56.356Z,0.00
2018-12-15T04:58:56.322Z,0.00
2018-12-15T04:59:56.287Z,0.00
2018-12-15T05:00:56.274Z,0.00
2018-12-15T05:01:56.263Z,0.00
2018-12-15T05:02:56.280Z,0.00
2018-12-15T05:03:56.253Z,0.00
2018-12-15T05:04:56.233Z,0.00
2018-12-15T05:05:56.222Z,0.00
2018-12-15T05:06:56.209Z,0.00
2018-12-15T05:07:56.204Z,0.00
2018-12-15T05:08:56.210Z,0.00
2018-12-15T05:09:56.186Z,0.00
2018-12-15T05:10:56.191Z,0.00
2018-12-15T05:11:56.154Z,0.00
2018-12-15T05:12:56.184Z,0.00
2018-12-15T05:13:56.132Z,0.00
2018-12-15T05:14:56.125Z,0.00
2018-12-15T05:15:56.118Z,0.00
2018-12-15T05:16:56.121Z,0.00
2018-12-15T05:17:56.117Z,0.00
2018-12-15T05:18:56.130Z,0.00
2018-12-15T05:19:56.087Z,0.00
2018-12-15T05:20:56.079Z,0.00
2018-12-15T05:21:56.081Z,0.00
2018-12-15T05:22:56.057Z,0.00
2018-12-15T05:23:56.025Z,0.00
2018-12-15T05:24:56.062Z,0.00
2018-12-15T05:25:56.028Z,0.00
2018-12-15T05:26:55.995Z,0.00
2018-12-15T05:27:55.981Z,0.00
2018-12-15T05:28:56.012Z,0.00
2018-12-15T05:29:55.957Z,0.00
2018-12-15T05:30:55.944Z,0.00
2018-12-15T05:31:55.937Z,0.00
2018-12-15T05:32:55.935Z,0.00
2018-12-15T05:33:55.913Z,0.00
2018-12-15T05:34:55.941Z,0.00
2018-12-15T05:35:55.919Z,0.00
2018-12-15T05:36:55.885Z,0.00
2018-12-15T05:37:55.871Z,0.00
2018-12-15T05:38:55.883Z,0.00
2018-12-15T05:39:55.884Z,0.00
2018-12-15T05:40:55.836Z,0.00
2018-12-15T05:41:55.887Z,0.00
2018-12-15T05:42:55.816Z,0.00
2018-12-15T05:43:55.827Z,0.00
2018-12-15T05:44:55.793Z,0.00
2018-12-15T05:45:55.802Z,0.00
2018-12-15T05:46:55.791Z,0.00
2018-12-15T05:47:55.784Z,0.00
2018-12-15T05:48:55.758Z,0.00
2018-12-15T05:49:55.774Z,0.00
2018-12-15T05:50:55.787Z,0.00
2018-12-15T05:51:55.741Z,0.00
2018-12-15T05:52:55.736Z,0.00
2018-12-15T05:53:55.712Z,0.00
2018-12-15T05:54:55.704Z,0.00
2018-12-15T05:55:55.718Z,0.00
2018-12-15T05:56:55.691Z,0.00
2018-12-15T05:57:55.646Z,0.00
2018-12-15T05:58:55.642Z,0.00
2018-12-15T05:59:55.662Z,0.00
2018-12-15T06:00:55.615Z,0.00
2018-12-15T06:01:55.609Z,0.00
2018-12-15T06:02:55.621Z,0.00
2018-12-15T06:03:55.610Z,0.00
2018-12-15T06:04:55.573Z,0.00
2018-12-15T06:05:55.612Z,0.00
2018-12-15T06:06:55.615Z,0.00
2018-12-15T06:07:55.548Z,0.00
2018-12-15T06:08:55.552Z,0.00
2018-12-15T06:09:55.517Z,0.00
2018-12-15T06:10:55.504Z,0.00
2018-12-15T06:11:55.501Z,0.00
2018-12-15T06:12:55.532Z,0.00
2018-12-15T06:13:55.530Z,0.00
2018-12-15T06:14:55.512Z,0.00
2018-12-15T06:15:55.482Z,0.00
2018-12-15T06:16:55.463Z,0.00
2018-12-15T06:17:55.431Z,0.00
2018-12-15T06:18:55.493Z,0.00
2018-12-15T06:19:55.440Z,0.00
2018-12-15T06:20:55.403Z,0.00
2018-12-15T06:21:55.396Z,0.00
2018-12-15T06:22:55.436Z,0.00
2018-12-15T06:23:55.398Z,0.00
2018-12-15T06:24:55.383Z,0.00
2018-12-15T06:25:55.428Z,0.00
2018-12-15T06:26:55.389Z,0.00
2018-12-15T06:27:55.406Z,0.00
2018-12-15T06:28:55.365Z,0.00
2018-12-15T06:29:55.361Z,0.00
2018-12-15T06:30:55.337Z,0.00
2018-12-15T06:31:55.377Z,0.00
2018-12-15T06:32:55.274Z,0.00
2018-12-15T06:33:55.288Z,0.00
2018-12-15T06:34:55.251Z,0.00
2018-12-15T06:35:55.237Z,0.00
2018-12-15T06:36:55.254Z,0.00
2018-12-15T06:37:55.239Z,0.00
2018-12-15T06:38:55.274Z,0.00
2018-12-15T06:39:55.217Z,0.00
2018-12-15T06:40:55.210Z,0.00
2018-12-15T06:41:55.196Z,0.00
2018-12-15T06:42:55.163Z,0.00
2018-12-15T06:43:55.150Z,0.00
2018-12-15T06:44:55.137Z,0.00
2018-12-15T06:45:55.153Z,0.00
2018-12-15T06:46:55.194Z,0.00
2018-12-15T06:47:55.137Z,0.00
2018-12-15T06:48:55.130Z,0.00
2018-12-15T06:49:55.125Z,0.00
2018-12-15T06:50:55.118Z,0.00
2018-12-15T06:51:55.101Z,0.00
2018-12-15T06:52:55.084Z,0.00
2018-12-15T06:53:55.122Z,0.00
2018-12-15T06:54:55.030Z,0.00
2018-12-15T06:55:55.035Z,0.00
2018-12-15T06:56:55.048Z,0.00
2018-12-15T06:57:55.037Z,0.00
2018-12-15T06:58:55.067Z,0.00
2018-12-15T06:59:55.006Z,0.00
2018-12-15T07:00:54.988Z,0.00
2018-12-15T07:01:54.980Z,0.00
2018-12-15T07:02:54.982Z,0.00
2018-12-15T07:03:54.933Z,0.00
2018-12-15T07:04:54.982Z,0.00
2018-12-15T07:05:54.943Z,0.00
2018-12-15T07:06:54.942Z,0.00
2018-12-15T07:07:54.909Z,0.00
2018-12-15T07:08:54.899Z,4.00
2018-12-15T07:09:54.936Z,4.00
2018-12-15T07:10:54.860Z,0.00
2018-12-15T07:11:54.871Z,0.00
2018-12-15T07:12:54.884Z,0.00
2018-12-15T07:13:54.819Z,4.00
2018-12-15T07:14:54.819Z,4.00
2018-12-15T07:15:54.813Z,0.00
2018-12-15T07:16:54.799Z,4.00
2018-12-15T07:17:54.772Z,4.00
2018-12-15T07:18:54.803Z,8.00
2018-12-15T07:19:54.754Z,4.00
2018-12-15T07:20:54.770Z,8.00
2018-12-15T07:21:54.767Z,4.00
2018-12-15T07:22:54.758Z,8.00
2018-12-15T07:23:54.711Z,8.00
2018-12-15T07:24:54.695Z,8.00
2018-12-15T07:25:54.687Z,8.00
2018-12-15T07:26:54.695Z,12.00
2018-12-15T07:27:54.700Z,8.00
2018-12-15T07:28:54.655Z,12.00
2018-12-15T07:29:54.677Z,12.00
2018-12-15T07:30:54.648Z,12.00
2018-12-15T07:31:54.626Z,16.00
2018-12-15T07:32:54.617Z,16.00
2018-12-15T07:33:54.706Z,20.00
2018-12-15T07:35:00.724Z,20.00
2018-12-15T07:35:55.600Z,20.00
2018-12-15T07:36:54.587Z,24.00
2018-12-15T07:37:54.586Z,24.00
2018-12-15T07:38:54.558Z,24.00
2018-12-15T07:39:54.531Z,28.00
2018-12-15T07:40:54.541Z,24.00
2018-12-15T07:41:54.515Z,24.00
2018-12-15T07:42:54.500Z,32.00
2018-12-15T07:43:54.721Z,32.00
2018-12-15T07:44:54.509Z,32.00
2018-12-15T07:45:54.473Z,36.00
2018-12-15T07:46:54.465Z,36.00
2018-12-15T07:47:54.441Z,36.00
2018-12-15T07:48:54.442Z,40.00
2018-12-15T07:49:54.471Z,40.00
2018-12-15T07:50:54.452Z,40.00
2018-12-15T07:51:54.414Z,44.00
2018-12-15T07:52:54.390Z,48.00
2018-12-15T07:53:54.451Z,48.00
2018-12-15T07:54:54.393Z,48.00
2018-12-15T07:55:54.364Z,52.00
2018-12-15T07:56:54.347Z,56.00
2018-12-15T07:57:54.367Z,56.00
2018-12-15T07:58:54.404Z,56.00
2018-12-15T07:59:54.337Z,56.00
2018-12-15T08:00:54.370Z,56.00
2018-12-15T08:01:54.329Z,56.00
2018-12-15T08:02:54.306Z,60.00
2018-12-15T08:03:54.304Z,64.00
2018-12-15T08:04:54.277Z,64.00
2018-12-15T08:05:54.275Z,68.00
2018-12-15T08:06:54.339Z,72.00
2018-12-15T08:07:54.247Z,72.00
2018-12-15T08:08:54.256Z,72.00
2018-12-15T08:09:54.282Z,80.00
2018-12-15T08:10:54.224Z,76.00
2018-12-15T08:11:54.203Z,84.00
2018-12-15T08:12:54.287Z,84.00
2018-12-15T08:13:54.184Z,88.00
2018-12-15T08:14:54.179Z,92.00
2018-12-15T08:15:54.155Z,92.00
2018-12-15T08:16:54.157Z,96.00
2018-12-15T08:17:54.173Z,100.00
2018-12-15T08:18:58.011Z,96.00
2018-12-15T08:19:54.121Z,104.00
2018-12-15T08:20:54.092Z,104.00
2018-12-15T08:21:54.103Z,108.00
2018-12-15T08:22:54.114Z,112.00
2018-12-15T08:23:54.073Z,112.00
2018-12-15T08:24:54.062Z,116.00
2018-12-15T08:25:54.057Z,120.00
2018-12-15T08:26:54.037Z,128.00
2018-12-15T08:27:54.021Z,132.00
2018-12-15T08:28:54.046Z,132.00
2018-12-15T08:29:53.981Z,140.00
2018-12-15T08:30:53.986Z,140.00
2018-12-15T08:31:53.983Z,148.00
2018-12-15T08:32:53.948Z,148.00
2018-12-15T08:33:53.987Z,156.00
2018-12-15T08:34:53.948Z,160.00
2018-12-15T08:35:53.947Z,164.00
2018-12-15T08:36:53.912Z,164.00
2018-12-15T08:37:53.955Z,168.00
2018-12-15T08:38:53.910Z,164.00
2018-12-15T08:39:53.880Z,168.00
2018-12-15T08:40:53.905Z,168.00
2018-12-15T08:41:53.888Z,176.00
2018-12-15T08:42:53.847Z,176.00
2018-12-15T08:43:53.855Z,184.00
2018-12-15T08:44:53.824Z,188.00
2018-12-15T08:45:53.818Z,188.00
2018-12-15T08:46:53.852Z,188.00
2018-12-15T08:47:53.832Z,192.00
2018-12-15T08:48:53.821Z,188.00
2018-12-15T08:49:53.792Z,192.00
2018-12-15T08:50:53.793Z,200.00
2018-12-15T08:51:53.780Z,204.00
2018-12-15T08:52:53.736Z,212.00
2018-12-15T08:53:53.769Z,220.00
2018-12-15T08:54:53.715Z,224.00
2018-12-15T08:55:53.733Z,232.00
2018-12-15T08:56:53.756Z,232.00
2018-12-15T08:57:53.696Z,228.00
2018-12-15T08:58:53.669Z,228.00
2018-12-15T08:59:53.700Z,228.00
2018-12-15T09:00:53.668Z,228.00
2018-12-15T09:01:53.693Z,224.00
2018-12-15T09:02:53.631Z,224.00
2018-12-15T09:03:53.647Z,220.00
2018-12-15T09:04:53.609Z,228.00
2018-12-15T09:05:53.588Z,232.00
2018-12-15T09:06:53.634Z,236.00
2018-12-15T09:07:53.595Z,236.00
2018-12-15T09:08:53.584Z,236.00
2018-12-15T09:09:53.566Z,232.00
2018-12-15T09:10:53.542Z,236.00
2018-12-15T09:11:53.569Z,240.00
2018-12-15T09:12:53.541Z,244.00
2018-12-15T09:13:53.529Z,248.00
2018-12-15T09:14:53.533Z,260.00
2018-12-15T09:15:53.484Z,268.00
2018-12-15T09:16:53.588Z,276.00
2018-12-15T09:17:53.472Z,280.00
2018-12-15T09:18:53.490Z,284.00
2018-12-15T09:19:53.471Z,288.00
2018-12-15T09:20:53.465Z,288.00
2018-12-15T09:21:53.448Z,288.00
2018-12-15T09:22:53.483Z,288.00
2018-12-15T09:23:53.415Z,284.00
2018-12-15T09:24:53.387Z,292.00
2018-12-15T09:25:53.433Z,296.00
2018-12-15T09:26:53.406Z,300.00
2018-12-15T09:27:53.381Z,308.00
2018-12-15T09:28:53.370Z,308.00
2018-12-15T09:29:53.351Z,308.00
2018-12-15T09:30:53.309Z,316.00
2018-12-15T09:31:53.326Z,328.00
2018-12-15T09:32:53.323Z,336.00
2018-12-15T09:33:53.338Z,348.00
2018-12-15T09:34:53.303Z,348.00
2018-12-15T09:35:53.295Z,356.00
2018-12-15T09:36:54.061Z,364.00
2018-12-15T09:37:53.283Z,368.00
2018-12-15T09:38:53.258Z,380.00
2018-12-15T09:39:53.243Z,388.00
2018-12-15T09:40:53.202Z,384.00
2018-12-15T09:41:53.212Z,392.00
2018-12-15T09:42:53.225Z,392.00
2018-12-15T09:43:53.176Z,392.00
2018-12-15T09:44:53.160Z,388.00
2018-12-15T09:45:53.208Z,380.00
2018-12-15T09:46:53.136Z,376.00
2018-12-15T09:47:53.157Z,376.00
2018-12-15T09:48:53.171Z,384.00
2018-12-15T09:49:53.154Z,384.00
2018-12-15T09:50:53.143Z,392.00
2018-12-15T09:51:53.104Z,396.00
2018-12-15T09:52:53.072Z,396.00
2018-12-15T09:53:53.109Z,396.00
2018-12-15T09:54:53.094Z,400.00
2018-12-15T09:55:53.039Z,408.00
2018-12-15T09:56:53.049Z,416.00
2018-12-15T09:57:53.102Z,420.00
2018-12-15T09:58:53.052Z,424.00
2018-12-15T09:59:52.991Z,416.00
2018-12-15T10:00:53.014Z,416.00
2018-12-15T10:01:53.007Z,416.00
2018-12-15T10:02:52.986Z,408.00
2018-12-15T10:03:53.015Z,396.00
2018-12-15T10:04:52.993Z,396.00
2018-12-15T10:05:52.945Z,396.00
2018-12-15T10:06:52.934Z,392.00
2018-12-15T10:07:52.958Z,388.00
2018-12-15T10:08:52.901Z,392.00
2018-12-15T10:09:53.106Z,396.00
2018-12-15T10:10:52.898Z,404.00
2018-12-15T10:11:52.867Z,408.00
2018-12-15T10:12:52.856Z,396.00
2018-12-15T10:13:52.847Z,392.00
2018-12-15T10:14:52.853Z,392.00
2018-12-15T10:15:52.847Z,392.00
2018-12-15T10:16:52.811Z,404.00
2018-12-15T10:17:52.814Z,412.00
2018-12-15T10:18:52.809Z,408.00
2018-12-15T10:19:53.047Z,408.00
2018-12-15T10:20:52.768Z,408.00
2018-12-15T10:21:52.755Z,400.00
2018-12-15T10:22:52.742Z,392.00
2018-12-15T10:23:52.798Z,396.00
2018-12-15T10:24:52.759Z,396.00
2018-12-15T10:25:52.713Z,400.00
2018-12-15T10:26:52.725Z,400.00
2018-12-15T10:27:52.684Z,400.00
2018-12-15T10:28:52.678Z,408.00
2018-12-15T10:29:52.674Z,412.00
2018-12-15T10:30:52.677Z,420.00
2018-12-15T10:31:52.650Z,428.00
2018-12-15T10:32:52.675Z,432.00
2018-12-15T10:33:52.622Z,432.00
2018-12-15T10:34:52.639Z,440.00
2018-12-15T10:35:52.598Z,460.00
2018-12-15T10:36:52.592Z,468.00
2018-12-15T10:37:52.578Z,468.00
2018-12-15T10:38:52.567Z,460.00
2018-12-15T10:39:52.601Z,460.00
2018-12-15T10:40:52.562Z,476.00
2018-12-15T10:41:52.553Z,496.00
2018-12-15T10:42:52.542Z,488.00
2018-12-15T10:43:52.536Z,492.00
2018-12-15T10:44:52.543Z,484.00
2018-12-15T10:45:52.526Z,480.00
2018-12-15T10:46:52.491Z,476.00
2018-12-15T10:47:52.480Z,468.00
2018-12-15T10:48:52.513Z,464.00
2018-12-15T10:49:52.461Z,464.00
2018-12-15T10:50:52.452Z,472.00
2018-12-15T10:51:52.436Z,468.00
2018-12-15T10:52:52.436Z,472.00
2018-12-15T10:53:52.429Z,476.00
2018-12-15T10:54:52.389Z,476.00
2018-12-15T10:55:52.412Z,476.00
2018-12-15T10:56:52.395Z,476.00
2018-12-15T10:57:52.361Z,480.00
2018-12-15T10:58:52.372Z,488.00
2018-12-15T10:59:52.341Z,484.00
2018-12-15T11:00:52.386Z,488.00
2018-12-15T11:01:52.351Z,488.00
2018-12-15T11:02:52.301Z,492.00
2018-12-15T11:03:52.288Z,496.00
2018-12-15T11:04:52.351Z,496.00
2018-12-15T11:05:52.314Z,508.00
2018-12-15T11:06:52.472Z,508.00
2018-12-15T11:07:52.257Z,512.00
2018-12-15T11:08:52.274Z,516.00
2018-12-15T11:09:52.242Z,512.00
2018-12-15T11:10:52.219Z,512.00
2018-12-15T11:11:52.248Z,524.00
2018-12-15T11:12:52.251Z,540.00
2018-12-15T11:13:52.214Z,548.00
2018-12-15T11:14:52.189Z,540.00
2018-12-15T11:15:52.182Z,524.00
2018-12-15T11:16:52.216Z,540.00
2018-12-15T11:17:52.157Z,540.00
2018-12-15T11:18:52.150Z,532.00
2018-12-15T11:19:52.157Z,536.00
2018-12-15T11:20:52.180Z,548.00
2018-12-15T11:21:52.162Z,544.00
2018-12-15T11:22:52.124Z,544.00
2018-12-15T11:23:52.078Z,556.00
2018-12-15T11:24:52.096Z,548.00
2018-12-15T11:25:52.054Z,524.00
2018-12-15T11:26:52.356Z,508.00
2018-12-15T11:27:52.059Z,512.00
2018-12-15T11:28:52.061Z,524.00
2018-12-15T11:29:52.055Z,528.00
2018-12-15T11:30:52.053Z,524.00
2018-12-15T11:31:52.037Z,516.00
2018-12-15T11:32:52.053Z,504.00
2018-12-15T11:33:52.026Z,512.00
2018-12-15T11:34:51.997Z,520.00
2018-12-15T11:35:51.964Z,504.00
2018-12-15T11:36:51.999Z,492.00
2018-12-15T11:37:51.969Z,496.00
2018-12-15T11:38:51.964Z,500.00
2018-12-15T11:39:51.927Z,492.00
2018-12-15T11:40:51.962Z,484.00
2018-12-15T11:41:51.895Z,480.00
2018-12-15T11:42:51.906Z,492.00
2018-12-15T11:43:51.856Z,492.00
2018-12-15T11:44:51.868Z,496.00
2018-12-15T11:45:51.860Z,508.00
2018-12-15T11:46:51.828Z,508.00
2018-12-15T11:47:51.905Z,508.00
2018-12-15T11:48:51.818Z,504.00
2018-12-15T11:49:51.793Z,496.00
2018-12-15T11:50:51.832Z,496.00
2018-12-15T11:51:51.769Z,488.00
2018-12-15T11:52:51.806Z,484.00
2018-12-15T11:53:51.772Z,476.00
2018-12-15T11:54:51.761Z,472.00
2018-12-15T11:55:51.730Z,480.00
2018-12-15T11:56:51.730Z,476.00
2018-12-15T11:57:51.743Z,476.00
2018-12-15T11:58:51.690Z,484.00
2018-12-15T11:59:51.705Z,492.00
2018-12-15T12:00:51.708Z,492.00
2018-12-15T12:01:53.099Z,492.00
2018-12-15T12:02:51.669Z,504.00
2018-12-15T12:03:51.669Z,516.00
2018-12-15T12:04:51.633Z,528.00
2018-12-15T12:05:51.624Z,524.00
2018-12-15T12:06:51.608Z,512.00
2018-12-15T12:07:51.622Z,508.00
2018-12-15T12:08:51.608Z,508.00
2018-12-15T12:09:51.649Z,496.00
2018-12-15T12:10:51.584Z,484.00
2018-12-15T12:11:51.550Z,484.00
2018-12-15T12:12:51.609Z,484.00
2018-12-15T12:13:51.544Z,480.00
2018-12-15T12:14:51.543Z,476.00
2018-12-15T12:15:51.511Z,476.00
2018-12-15T12:16:51.525Z,472.00
2018-12-15T12:17:51.523Z,472.00
2018-12-15T12:18:51.477Z,468.00
2018-12-15T12:19:51.489Z,468.00
2018-12-15T12:20:51.486Z,468.00
2018-12-15T12:21:51.474Z,468.00
2018-12-15T12:22:51.453Z,476.00
2018-12-15T12:23:51.419Z,484.00
2018-12-15T12:24:51.413Z,488.00
2018-12-15T12:25:51.397Z,488.00
2018-12-15T12:26:51.388Z,488.00
2018-12-15T12:27:51.390Z,496.00
2018-12-15T12:28:51.513Z,496.00
2018-12-15T12:29:51.558Z,508.00
2018-12-15T12:30:51.371Z,512.00
2018-12-15T12:31:51.356Z,516.00
2018-12-15T12:32:51.423Z,520.00
2018-12-15T12:33:51.387Z,524.00
2018-12-15T12:34:51.322Z,520.00
2018-12-15T12:35:51.295Z,524.00
2018-12-15T12:36:51.273Z,528.00
2018-12-15T12:37:51.305Z,516.00
2018-12-15T12:38:52.235Z,500.00
2018-12-15T12:39:51.290Z,496.00
2018-12-15T12:40:51.281Z,492.00
2018-12-15T12:41:51.222Z,484.00
2018-12-15T12:42:51.283Z,480.00
2018-12-15T12:43:51.272Z,476.00
2018-12-15T12:44:51.196Z,472.00
2018-12-15T12:45:51.209Z,472.00
2018-12-15T12:46:51.204Z,464.00
2018-12-15T12:47:51.184Z,468.00
2018-12-15T12:48:51.173Z,476.00
2018-12-15T12:49:56.700Z,484.00
2018-12-15T12:50:52.121Z,476.00
2018-12-15T12:51:51.139Z,472.00
2018-12-15T12:52:51.111Z,480.00
2018-12-15T12:53:51.097Z,472.00
2018-12-15T12:54:51.102Z,460.00
2018-12-15T12:55:51.139Z,452.00
2018-12-15T12:56:51.084Z,444.00
2018-12-15T12:57:51.109Z,436.00
2018-12-15T12:58:51.035Z,432.00